Time;durP1;ratioP1;P1;durP2;ratioP2;P2;SDS_P1;SDS_P2;PMS_P1;PMS_P2;Temp;Humidity;BMP_temperature;BMP_pressure;BME280_temperature;BME280_humidity;BME280_pressure;Samples;Min_cycle;Max_cycle;Signal;HPM_P1;HPM_P2
2023/06/01 00:00:00;;;;;;;18.27;13.95;;;;;;;;;;6275513;22;20446;-85
2023/06/01 00:02:26;;;;;;;22.17;15.32;;;;;;;;;;6274251;22;20011;-85
2023/06/01 00:04:52;;;;;;;27.92;14.88;;;;;;;;;;6274512;22;20039;-84
2023/06/01 00:07:18;;;;;;;22.17;13.50;;;;;;;;;;6249380;22;20077;-86
2023/06/01 00:09:44;;;;;;;21.77;12.38;;;;;;;;;;6275945;22;20016;-85
2023/06/01 00:12:10;;;;;;;21.25;14.80;;;;;;;;;;6274356;22;20015;-85
2023/06/01 00:14:37;;;;;;;21.90;14.82;;;;;;;;;;6277212;22;20019;-85
2023/06/01 00:17:05;;;;;;;20.65;12.98;;;;;;;;;;6274339;22;20073;-85
2023/06/01 00:19:31;;;;;;;21.55;13.98;;;;;;;;;;6274289;22;20170;-84
2023/06/01 00:21:58;;;;;;;25.65;13.57;;;;;;;;;;6274227;22;20080;-85
2023/06/01 00:24:25;;;;;;;22.60;16.25;;;;;;;;;;6274949;22;20016;-85
2023/06/01 00:26:51;;;;;;;21.35;13.43;;;;;;;;;;6249825;22;20407;-83
2023/06/01 00:29:18;;;;;;;24.48;15.80;;;;;;;;;;6275312;22;20012;-84
2023/06/01 00:31:44;;;;;;;23.17;17.15;;;;;;;;;;6276871;22;20026;-85
2023/06/01 00:34:10;;;;;;;19.02;14.27;;;;;;;;;;6277730;22;20015;-84
2023/06/01 00:36:36;;;;;;;23.08;14.35;;;;;;;;;;6276233;22;20012;-83
2023/06/01 00:39:03;;;;;;;18.88;15.40;;;;;;;;;;6279442;22;20008;-85
2023/06/01 00:41:30;;;;;;;19.40;14.32;;;;;;;;;;6275198;22;20012;-85
2023/06/01 00:43:56;;;;;;;22.35;14.55;;;;;;;;;;6276375;22;20015;-84
2023/06/01 00:46:22;;;;;;;18.42;13.27;;;;;;;;;;6248721;22;20012;-85
2023/06/01 00:48:48;;;;;;;23.40;14.77;;;;;;;;;;6274745;22;20042;-84
2023/06/01 00:51:15;;;;;;;19.77;17.80;;;;;;;;;;6274266;22;20019;-84
2023/06/01 00:53:41;;;;;;;23.48;15.63;;;;;;;;;;6249323;22;20094;-83
2023/06/01 00:56:08;;;;;;;19.75;16.50;;;;;;;;;;6275749;22;20016;-84
2023/06/01 00:58:34;;;;;;;21.25;14.80;;;;;;;;;;6248126;22;20047;-84
2023/06/01 01:01:01;;;;;;;16.85;13.85;;;;;;;;;;6248684;22;20018;-83
2023/06/01 01:03:27;;;;;;;20.10;16.05;;;;;;;;;;6248500;22;20012;-84
2023/06/01 01:06:00;;;;;;;25.60;15.68;;;;;;;;;;6274132;22;20014;-84
2023/06/01 01:08:32;;;;;;;20.25;17.92;;;;;;;;;;6274529;22;20431;-84
2023/06/01 01:11:01;;;;;;;19.17;17.20;;;;;;;;;;6273727;22;20016;-84
2023/06/01 01:13:31;;;;;;;22.13;14.00;;;;;;;;;;6274089;22;20373;-84
2023/06/01 01:16:16;;;;;;;20.38;16.77;;;;;;;;;;6273792;22;20086;-85
2023/06/01 01:19:04;;;;;;;21.33;15.20;;;;;;;;;;6248373;22;20015;-86
2023/06/01 01:21:31;;;;;;;22.23;17.13;;;;;;;;;;6273553;22;20156;-84
2023/06/01 01:24:16;;;;;;;19.60;15.05;;;;;;;;;;6249276;22;20022;-85
2023/06/01 01:26:53;;;;;;;23.20;15.60;;;;;;;;;;6248682;22;20402;-85
2023/06/01 01:29:21;;;;;;;22.13;17.20;;;;;;;;;;6274270;22;20019;-84
2023/06/01 01:31:49;;;;;;;21.75;16.45;;;;;;;;;;6249104;22;20442;-84
2023/06/01 01:34:17;;;;;;;25.45;15.90;;;;;;;;;;6273463;22;20055;-84
2023/06/01 01:36:43;;;;;;;20.75;16.83;;;;;;;;;;6274528;22;20011;-84
2023/06/01 01:39:09;;;;;;;19.58;14.02;;;;;;;;;;6274639;22;20088;-84
2023/06/01 01:41:35;;;;;;;23.02;18.02;;;;;;;;;;6275999;22;20071;-85
2023/06/01 01:44:02;;;;;;;20.48;14.82;;;;;;;;;;6249064;22;20023;-84
2023/06/01 01:46:30;;;;;;;20.23;18.02;;;;;;;;;;6248517;22;20016;-84
2023/06/01 01:49:02;;;;;;;18.83;16.50;;;;;;;;;;6248843;22;20012;-84
2023/06/01 01:51:48;;;;;;;24.45;18.48;;;;;;;;;;6249506;22;20023;-84
2023/06/01 01:54:14;;;;;;;22.10;16.13;;;;;;;;;;6274909;22;20015;-84
2023/06/01 01:56:41;;;;;;;22.50;16.17;;;;;;;;;;6277445;22;20016;-85
2023/06/01 01:59:07;;;;;;;18.98;16.27;;;;;;;;;;6275603;22;20015;-84
2023/06/01 02:01:33;;;;;;;28.75;19.92;;;;;;;;;;6250507;22;20030;-85
2023/06/01 02:04:03;;;;;;;22.33;19.90;;;;;;;;;;6275807;22;20012;-84
2023/06/01 02:06:29;;;;;;;22.05;19.80;;;;;;;;;;6275563;22;20015;-84
2023/06/01 02:08:55;;;;;;;21.58;18.25;;;;;;;;;;6250665;22;20012;-85
2023/06/01 02:11:21;;;;;;;22.88;20.55;;;;;;;;;;6250269;22;20015;-85
2023/06/01 02:13:48;;;;;;;20.98;18.40;;;;;;;;;;6250445;22;20251;-85
2023/06/01 02:16:15;;;;;;;23.65;18.98;;;;;;;;;;6278674;22;20012;-84
2023/06/01 02:18:45;;;;;;;22.02;19.35;;;;;;;;;;6278569;22;20012;-85
2023/06/01 02:21:12;;;;;;;19.20;17.10;;;;;;;;;;6277913;22;20048;-85
2023/06/01 02:23:39;;;;;;;20.83;15.65;;;;;;;;;;6277992;22;20019;-85
2023/06/01 02:26:05;;;;;;;21.40;15.43;;;;;;;;;;6251050;22;20050;-85
2023/06/01 02:28:32;;;;;;;22.20;17.42;;;;;;;;;;6275958;22;20038;-85
2023/06/01 02:30:57;;;;;;;18.73;15.18;;;;;;;;;;6275454;22;20418;-84
2023/06/01 02:33:27;;;;;;;20.25;15.88;;;;;;;;;;6278160;22;20045;-85
2023/06/01 02:35:53;;;;;;;17.85;16.02;;;;;;;;;;6277161;22;20007;-86
2023/06/01 02:38:19;;;;;;;20.55;15.15;;;;;;;;;;6279412;22;20030;-84
2023/06/01 02:40:45;;;;;;;21.90;14.77;;;;;;;;;;6278529;22;20018;-85
2023/06/01 02:43:11;;;;;;;21.13;16.05;;;;;;;;;;6251694;22;20016;-85
2023/06/01 02:45:38;;;;;;;22.25;16.70;;;;;;;;;;6277749;22;20109;-85
2023/06/01 02:48:04;;;;;;;18.70;14.52;;;;;;;;;;6276036;22;20035;-85
2023/06/01 02:50:30;;;;;;;22.63;15.57;;;;;;;;;;6277044;22;20015;-85
2023/06/01 02:52:56;;;;;;;20.95;12.25;;;;;;;;;;6274992;22;20027;-85
2023/06/01 02:55:22;;;;;;;20.92;14.35;;;;;;;;;;6250771;22;20477;-85
2023/06/01 02:57:48;;;;;;;21.48;15.38;;;;;;;;;;6275884;22;20023;-85
2023/06/01 03:00:17;;;;;;;18.17;13.88;;;;;;;;;;6249454;22;20015;-85
2023/06/01 03:02:44;;;;;;;23.10;13.35;;;;;;;;;;6277092;22;20424;-84
2023/06/01 03:05:14;;;;;;;22.35;14.82;;;;;;;;;;6250018;22;20107;-84
2023/06/01 03:07:40;;;;;;;17.85;14.30;;;;;;;;;;6275877;22;20068;-84
2023/06/01 03:10:06;;;;;;;14.63;13.20;;;;;;;;;;6276048;22;20077;-84
2023/06/01 03:12:32;;;;;;;17.52;12.93;;;;;;;;;;6277392;22;20095;-85
2023/06/01 03:14:58;;;;;;;15.25;12.95;;;;;;;;;;6250122;22;20018;-85
2023/06/01 03:17:24;;;;;;;15.15;10.50;;;;;;;;;;6275522;22;20019;-85
2023/06/01 03:19:50;;;;;;;16.13;14.32;;;;;;;;;;6249601;22;20020;-84
2023/06/01 03:22:16;;;;;;;19.48;11.70;;;;;;;;;;6275673;22;20015;-85
2023/06/01 03:24:43;;;;;;;16.75;12.43;;;;;;;;;;6275596;22;20031;-85
2023/06/01 03:27:11;;;;;;;16.70;12.35;;;;;;;;;;6275357;22;20435;-85
2023/06/01 03:29:37;;;;;;;15.45;11.25;;;;;;;;;;6276977;22;20109;-85
2023/06/01 03:32:03;;;;;;;16.45;12.30;;;;;;;;;;6275210;22;20038;-85
2023/06/01 03:34:29;;;;;;;16.77;13.68;;;;;;;;;;6276033;22;20018;-85
2023/06/01 03:36:56;;;;;;;19.05;11.98;;;;;;;;;;6249865;22;20047;-84
2023/06/01 03:39:22;;;;;;;14.45;10.45;;;;;;;;;;6275007;22;20339;-85
2023/06/01 03:41:48;;;;;;;16.42;12.50;;;;;;;;;;6249372;22;20016;-84
2023/06/01 03:44:14;;;;;;;16.95;13.10;;;;;;;;;;6274888;22;20382;-84
2023/06/01 03:46:40;;;;;;;18.73;13.57;;;;;;;;;;6276216;22;20012;-84
2023/06/01 03:49:06;;;;;;;14.63;13.13;;;;;;;;;;6249593;22;20016;-84
2023/06/01 03:51:32;;;;;;;17.05;11.48;;;;;;;;;;6274887;22;20148;-83
2023/06/01 03:53:58;;;;;;;21.23;14.80;;;;;;;;;;6274989;22;20094;-84
2023/06/01 03:56:24;;;;;;;16.92;11.48;;;;;;;;;;6249050;22;20446;-84
2023/06/01 03:58:51;;;;;;;16.40;10.40;;;;;;;;;;6276441;22;20015;-83
2023/06/01 04:01:19;;;;;;;17.75;10.20;;;;;;;;;;6249163;22;20007;-83
2023/06/01 04:03:45;;;;;;;18.10;11.20;;;;;;;;;;6249141;22;20008;-85
2023/06/01 04:06:17;;;;;;;21.15;10.85;;;;;;;;;;6276465;22;20011;-86
2023/06/01 04:08:48;;;;;;;18.90;10.35;;;;;;;;;;6248215;22;20060;-85
2023/06/01 04:11:18;;;;;;;13.10;10.23;;;;;;;;;;6274039;22;20042;-84
2023/06/01 04:13:44;;;;;;;20.90;10.60;;;;;;;;;;6273248;22;20054;-83
2023/06/01 04:16:11;;;;;;;18.30;10.77;;;;;;;;;;6273577;22;20011;-85
2023/06/01 04:18:37;;;;;;;15.00;9.85;;;;;;;;;;6273801;22;20110;-84
2023/06/01 04:21:03;;;;;;;19.27;10.73;;;;;;;;;;6273951;22;20016;-83
2023/06/01 04:23:30;;;;;;;17.77;9.38;;;;;;;;;;6273702;22;20011;-85
2023/06/01 04:25:59;;;;;;;18.60;8.98;;;;;;;;;;6273614;22;20015;-85
2023/06/01 04:28:27;;;;;;;21.80;9.98;;;;;;;;;;6275034;22;20033;-84
2023/06/01 04:30:54;;;;;;;17.85;9.85;;;;;;;;;;6274332;22;20019;-84
2023/06/01 04:33:22;;;;;;;17.95;10.35;;;;;;;;;;6275378;22;20087;-85
2023/06/01 04:35:48;;;;;;;19.25;9.00;;;;;;;;;;6273757;22;20008;-84
2023/06/01 04:38:16;;;;;;;21.17;11.48;;;;;;;;;;6249238;22;20023;-83
2023/06/01 04:40:44;;;;;;;18.92;9.10;;;;;;;;;;6274792;22;20185;-85
2023/06/01 04:43:11;;;;;;;18.42;8.15;;;;;;;;;;6249688;22;20027;-84
2023/06/01 04:45:38;;;;;;;15.55;8.57;;;;;;;;;;6251884;22;20366;-84
2023/06/01 04:48:08;;;;;;;15.23;9.40;;;;;;;;;;6276109;22;20012;-84
2023/06/01 04:50:34;;;;;;;15.95;9.27;;;;;;;;;;6274960;22;20023;-85
2023/06/01 04:53:01;;;;;;;14.95;8.27;;;;;;;;;;6274891;22;20023;-84
2023/06/01 04:55:27;;;;;;;14.90;7.57;;;;;;;;;;6273807;22;20315;-85
2023/06/01 04:57:53;;;;;;;13.38;7.25;;;;;;;;;;6273943;22;20039;-85
2023/06/01 05:00:19;;;;;;;14.98;8.73;;;;;;;;;;6248751;22;20012;-84
2023/06/01 05:02:47;;;;;;;19.10;8.27;;;;;;;;;;6274385;22;20012;-82
2023/06/01 05:05:15;;;;;;;12.40;8.70;;;;;;;;;;6248116;22;20043;-83
2023/06/01 05:07:44;;;;;;;13.63;8.00;;;;;;;;;;6247632;22;20034;-82
2023/06/01 05:10:11;;;;;;;14.30;8.45;;;;;;;;;;6249511;22;20018;-85
2023/06/01 05:12:37;;;;;;;11.13;7.28;;;;;;;;;;6273959;22;20011;-86
2023/06/01 05:15:05;;;;;;;14.13;7.78;;;;;;;;;;6274759;22;20054;-85
2023/06/01 05:17:31;;;;;;;14.48;7.60;;;;;;;;;;6275748;22;20054;-85
2023/06/01 05:19:57;;;;;;;12.80;7.60;;;;;;;;;;6248376;22;20012;-85
2023/06/01 05:22:24;;;;;;;15.10;7.88;;;;;;;;;;6276842;22;20020;-85
2023/06/01 05:24:50;;;;;;;12.40;7.68;;;;;;;;;;6255638;22;20027;-85
2023/06/01 05:27:16;;;;;;;13.55;7.63;;;;;;;;;;6278934;22;20011;-85
2023/06/01 05:29:42;;;;;;;13.45;7.07;;;;;;;;;;6278751;22;20069;-83
2023/06/01 05:32:09;;;;;;;15.07;6.78;;;;;;;;;;6279713;22;20044;-85
2023/06/01 05:34:35;;;;;;;12.68;8.20;;;;;;;;;;6280970;22;20399;-85
2023/06/01 05:37:02;;;;;;;15.13;7.65;;;;;;;;;;6279487;22;20019;-85
2023/06/01 05:39:28;;;;;;;10.45;6.90;;;;;;;;;;6280672;22;20012;-85
2023/06/01 05:41:55;;;;;;;15.38;7.15;;;;;;;;;;6252532;22;20077;-85
2023/06/01 05:44:21;;;;;;;13.60;7.05;;;;;;;;;;6274542;22;20069;-85
2023/06/01 05:46:47;;;;;;;13.85;7.18;;;;;;;;;;6248133;22;20094;-85
2023/06/01 05:49:13;;;;;;;13.38;6.60;;;;;;;;;;6248629;22;20072;-85
2023/06/01 05:51:40;;;;;;;14.70;6.45;;;;;;;;;;6273801;22;20446;-85
2023/06/01 05:54:06;;;;;;;13.65;7.43;;;;;;;;;;6273754;22;20467;-86
2023/06/01 05:56:33;;;;;;;11.50;6.90;;;;;;;;;;6273709;22;20073;-85
2023/06/01 05:58:59;;;;;;;15.25;7.20;;;;;;;;;;6273875;22;20011;-85
2023/06/01 06:01:27;;;;;;;9.82;7.43;;;;;;;;;;6273874;22;20018;-85
2023/06/01 06:03:53;;;;;;;13.32;7.50;;;;;;;;;;6273821;22;20434;-85
2023/06/01 06:06:20;;;;;;;12.10;6.78;;;;;;;;;;6248261;22;20384;-85
2023/06/01 06:08:46;;;;;;;14.45;7.22;;;;;;;;;;6274307;22;20019;-85
2023/06/01 06:11:12;;;;;;;10.45;6.75;;;;;;;;;;6275056;22;20069;-86
2023/06/01 06:13:38;;;;;;;13.18;7.40;;;;;;;;;;6274278;22;20008;-85
2023/06/01 06:16:04;;;;;;;11.15;6.25;;;;;;;;;;6275765;22;20047;-85
2023/06/01 06:18:30;;;;;;;10.82;6.95;;;;;;;;;;6248345;22;20015;-86
2023/06/01 06:20:56;;;;;;;13.85;6.60;;;;;;;;;;6248213;22;20347;-85
2023/06/01 06:23:23;;;;;;;10.30;6.78;;;;;;;;;;6273732;22;20016;-85
2023/06/01 06:25:49;;;;;;;13.98;6.95;;;;;;;;;;6247515;22;20012;-86
2023/06/01 06:28:15;;;;;;;12.88;6.75;;;;;;;;;;6248279;22;20047;-85
2023/06/01 06:30:41;;;;;;;10.20;6.80;;;;;;;;;;6274315;22;20316;-86
2023/06/01 06:33:07;;;;;;;11.45;7.90;;;;;;;;;;6273798;22;20400;-86
2023/06/01 06:35:33;;;;;;;10.25;7.80;;;;;;;;;;6275216;22;20012;-85
2023/06/01 06:37:59;;;;;;;11.98;7.25;;;;;;;;;;6274045;22;20358;-85
2023/06/01 06:40:25;;;;;;;10.52;8.30;;;;;;;;;;6273375;22;20031;-85
2023/06/01 06:42:51;;;;;;;13.18;7.10;;;;;;;;;;6273857;22;20012;-85
2023/06/01 06:45:17;;;;;;;9.20;8.00;;;;;;;;;;6273877;22;20008;-85
2023/06/01 06:47:45;;;;;;;13.13;8.80;;;;;;;;;;6280411;22;20454;-86
2023/06/01 06:50:11;;;;;;;12.82;9.48;;;;;;;;;;6252360;22;20016;-86
2023/06/01 06:52:37;;;;;;;13.18;10.85;;;;;;;;;;6280002;22;20114;-85
2023/06/01 06:55:03;;;;;;;11.35;10.05;;;;;;;;;;6272862;22;20020;-85
2023/06/01 06:57:29;;;;;;;15.52;12.27;;;;;;;;;;6274979;22;20069;-85
2023/06/01 06:59:55;;;;;;;18.88;12.90;;;;;;;;;;6247839;22;20020;-85
2023/06/01 07:02:22;;;;;;;16.83;13.63;;;;;;;;;;6273231;22;20012;-85
2023/06/01 07:04:48;;;;;;;14.43;12.48;;;;;;;;;;6275214;22;20065;-85
2023/06/01 07:07:14;;;;;;;17.75;14.20;;;;;;;;;;6272998;22;20018;-85
2023/06/01 07:09:40;;;;;;;12.57;10.95;;;;;;;;;;6246788;22;20016;-86
2023/06/01 07:12:08;;;;;;;15.32;10.18;;;;;;;;;;6275235;22;20012;-85
2023/06/01 07:14:34;;;;;;;13.90;12.80;;;;;;;;;;6247320;22;20102;-85
2023/06/01 07:17:00;;;;;;;14.25;13.15;;;;;;;;;;6247427;22;20016;-85
2023/06/01 07:19:32;;;;;;;16.88;15.40;;;;;;;;;;6247557;22;20014;-85
2023/06/01 07:21:59;;;;;;;14.85;13.73;;;;;;;;;;6247485;22;20410;-85
2023/06/01 07:24:26;;;;;;;12.82;11.60;;;;;;;;;;6272253;22;20023;-85
2023/06/01 07:26:53;;;;;;;15.38;14.13;;;;;;;;;;6273154;22;20018;-85
2023/06/01 07:29:19;;;;;;;21.13;19.52;;;;;;;;;;6247295;22;20060;-85
2023/06/01 07:31:45;;;;;;;17.40;16.05;;;;;;;;;;6272935;22;20077;-85
2023/06/01 07:34:12;;;;;;;15.90;14.35;;;;;;;;;;6247462;22;20039;-85
2023/06/01 07:36:38;;;;;;;16.40;14.95;;;;;;;;;;6272569;22;20019;-85
2023/06/01 07:39:08;;;;;;;17.73;16.17;;;;;;;;;;6247027;22;20022;-85
2023/06/01 07:41:35;;;;;;;19.13;17.63;;;;;;;;;;6272796;22;20019;-85
2023/06/01 07:44:01;;;;;;;14.95;13.50;;;;;;;;;;6247307;22;20024;-85
2023/06/01 07:46:27;;;;;;;18.73;17.17;;;;;;;;;;6272567;22;20015;-85
2023/06/01 07:48:53;;;;;;;19.23;17.73;;;;;;;;;;6273033;22;20251;-85
2023/06/01 07:51:19;;;;;;;18.98;17.50;;;;;;;;;;6246468;22;20392;-85
2023/06/01 07:53:45;;;;;;;18.67;17.02;;;;;;;;;;6247032;22;20047;-85
2023/06/01 07:56:11;;;;;;;21.38;20.00;;;;;;;;;;6247126;22;20011;-85
2023/06/01 07:58:37;;;;;;;19.40;17.88;;;;;;;;;;6272401;22;20015;-85
2023/06/01 08:01:04;;;;;;;17.45;16.08;;;;;;;;;;6273123;22;20295;-85
2023/06/01 08:03:33;;;;;;;16.58;15.13;;;;;;;;;;6247103;22;20011;-85
2023/06/01 08:06:02;;;;;;;20.80;19.25;;;;;;;;;;6246267;22;20405;-85
2023/06/01 08:08:28;;;;;;;21.35;19.70;;;;;;;;;;6274541;22;20083;-85
2023/06/01 08:10:54;;;;;;;16.15;14.85;;;;;;;;;;6246831;22;20102;-85
2023/06/01 08:13:21;;;;;;;13.48;12.27;;;;;;;;;;6272247;22;20008;-85
2023/06/01 08:15:47;;;;;;;20.27;18.92;;;;;;;;;;6272374;22;20011;-85
2023/06/01 08:18:16;;;;;;;15.73;14.25;;;;;;;;;;6246923;22;20216;-85
2023/06/01 08:20:44;;;;;;;17.25;15.77;;;;;;;;;;6273978;22;20091;-85
2023/06/01 08:23:10;;;;;;;14.52;11.77;;;;;;;;;;6274385;22;20320;-85
2023/06/01 08:25:36;;;;;;;17.02;15.55;;;;;;;;;;6246833;22;20015;-85
2023/06/01 08:28:02;;;;;;;13.60;12.38;;;;;;;;;;6272267;22;20043;-85
2023/06/01 08:30:28;;;;;;;20.02;18.38;;;;;;;;;;6246619;22;20015;-85
2023/06/01 08:32:55;;;;;;;19.30;17.73;;;;;;;;;;6274317;22;20443;-85
2023/06/01 08:35:21;;;;;;;18.33;16.98;;;;;;;;;;6273750;22;20015;-85
2023/06/01 08:37:50;;;;;;;16.30;15.02;;;;;;;;;;6246725;22;20007;-85
2023/06/01 08:40:16;;;;;;;17.50;16.08;;;;;;;;;;6246646;22;20434;-85
2023/06/01 08:42:45;;;;;;;18.50;17.05;;;;;;;;;;6272591;22;20099;-85
2023/06/01 08:45:12;;;;;;;15.38;14.05;;;;;;;;;;6246532;22;20065;-85
2023/06/01 08:47:39;;;;;;;20.23;18.75;;;;;;;;;;6272215;22;20022;-83
2023/06/01 08:50:06;;;;;;;19.10;17.13;;;;;;;;;;6248078;22;20015;-85
2023/06/01 08:52:35;;;;;;;17.70;16.23;;;;;;;;;;6286255;22;20054;-83
2023/06/01 08:55:03;;;;;;;15.10;13.75;;;;;;;;;;6257991;22;20058;-83
2023/06/01 08:57:32;;;;;;;12.93;11.60;;;;;;;;;;6256655;22;20019;-83
2023/06/01 09:00:01;;;;;;;15.82;14.32;;;;;;;;;;6277824;22;20015;-83
2023/06/01 09:02:27;;;;;;;20.73;18.83;;;;;;;;;;6277548;22;20033;-83
2023/06/01 09:04:54;;;;;;;16.25;10.82;;;;;;;;;;6251021;22;20015;-83
2023/06/01 09:07:20;;;;;;;14.82;10.93;;;;;;;;;;6251876;22;20011;-83
2023/06/01 09:09:46;;;;;;;15.25;7.80;;;;;;;;;;6277356;22;20019;-82
2023/06/01 09:12:27;;;;;;;11.75;10.05;;;;;;;;;;6277393;22;20021;-83
2023/06/01 09:15:16;;;;;;;15.10;13.52;;;;;;;;;;6277494;22;20189;-83
2023/06/01 09:17:42;;;;;;;16.98;15.15;;;;;;;;;;6251509;22;20095;-83
2023/06/01 09:20:13;;;;;;;22.10;11.02;;;;;;;;;;6250979;22;20007;-83
2023/06/01 09:22:43;;;;;;;11.52;10.15;;;;;;;;;;6277613;22;20015;-83
2023/06/01 09:25:09;;;;;;;14.38;12.70;;;;;;;;;;6276925;22;20011;-84
2023/06/01 09:27:42;;;;;;;17.10;11.88;;;;;;;;;;6277386;22;20082;-83
2023/06/01 09:30:09;;;;;;;14.07;10.77;;;;;;;;;;6276933;22;20346;-83
2023/06/01 09:32:35;;;;;;;13.95;9.88;;;;;;;;;;6276317;22;20015;-82
2023/06/01 09:35:01;;;;;;;14.55;10.88;;;;;;;;;;6310664;22;20457;-82
2023/06/01 09:37:27;;;;;;;16.23;9.90;;;;;;;;;;6258543;22;20315;-81
2023/06/01 09:39:53;;;;;;;15.50;13.07;;;;;;;;;;6257632;22;20007;-82
2023/06/01 09:42:30;;;;;;;19.77;8.95;;;;;;;;;;6257381;22;20532;-82
2023/06/01 09:45:13;;;;;;;18.08;8.82;;;;;;;;;;6282259;22;20011;-82
2023/06/01 09:47:39;;;;;;;13.18;9.32;;;;;;;;;;6257169;22;20023;-82
2023/06/01 09:50:06;;;;;;;11.88;8.95;;;;;;;;;;6256883;22;20015;-82
2023/06/01 09:52:32;;;;;;;11.93;8.30;;;;;;;;;;6258626;22;20061;-83
2023/06/01 09:55:05;;;;;;;14.45;9.32;;;;;;;;;;6257756;22;20019;-82
2023/06/01 09:57:31;;;;;;;15.48;9.20;;;;;;;;;;6284654;22;20011;-83
2023/06/01 09:59:57;;;;;;;15.18;9.23;;;;;;;;;;6257933;22;20015;-82
2023/06/01 10:02:24;;;;;;;15.07;6.45;;;;;;;;;;6282679;22;20016;-82
2023/06/01 10:04:57;;;;;;;13.38;7.03;;;;;;;;;;6256543;22;20324;-81
2023/06/01 10:07:23;;;;;;;;;;;;;;;;;;6256449;22;20015;-82
2023/06/01 10:09:55;;;;;;;12.70;7.70;;;;;;;;;;6259841;22;19956;-82
2023/06/01 10:12:22;;;;;;;12.30;6.68;;;;;;;;;;6287116;22;20071;-82
2023/06/01 10:14:49;;;;;;;18.42;8.25;;;;;;;;;;6260416;22;20018;-82
2023/06/01 10:17:16;;;;;;;14.65;7.93;;;;;;;;;;6259817;22;20018;-83
2023/06/01 10:19:42;;;;;;;14.23;7.15;;;;;;;;;;6260443;22;20007;-83
2023/06/01 10:22:11;;;;;;;13.20;8.30;;;;;;;;;;6286769;22;20015;-83
2023/06/01 10:24:40;;;;;;;15.43;7.80;;;;;;;;;;6260990;22;20015;-83
2023/06/01 10:27:20;;;;;;;11.07;7.47;;;;;;;;;;6284974;22;20422;-84
2023/06/01 10:29:46;;;;;;;13.02;6.28;;;;;;;;;;6259256;22;20022;-83
2023/06/01 10:32:31;;;;;;;11.65;7.28;;;;;;;;;;6284096;22;20015;-83
2023/06/01 10:34:57;;;;;;;9.32;5.82;;;;;;;;;;6260247;22;20065;-83
2023/06/01 10:37:23;;;;;;;11.93;5.72;;;;;;;;;;6259426;22;20015;-83
2023/06/01 10:39:49;;;;;;;14.70;5.25;;;;;;;;;;6258561;22;20039;-84
2023/06/01 10:42:17;;;;;;;8.48;4.85;;;;;;;;;;6257880;22;20513;-82
2023/06/01 10:44:44;;;;;;;14.50;4.85;;;;;;;;;;6284086;22;20022;-83
2023/06/01 10:47:13;;;;;;;11.35;5.43;;;;;;;;;;6282458;22;20318;-82
2023/06/01 10:49:51;;;;;;;11.13;5.25;;;;;;;;;;6283496;22;20011;-83
2023/06/01 10:52:29;;;;;;;15.57;5.80;;;;;;;;;;6261790;22;20042;-83
2023/06/01 10:55:15;;;;;;;14.60;7.53;;;;;;;;;;6266081;22;20015;-83
2023/06/01 10:57:45;;;;;;;11.95;5.88;;;;;;;;;;6290481;22;20015;-81
2023/06/01 11:00:16;;;;;;;14.93;4.95;;;;;;;;;;6267589;22;20015;-82
2023/06/01 11:02:48;;;;;;;13.85;5.25;;;;;;;;;;6262818;22;20088;-83
2023/06/01 11:05:33;;;;;;;16.92;5.70;;;;;;;;;;6261275;22;20015;-83
2023/06/01 11:07:59;;;;;;;12.70;4.40;;;;;;;;;;6287696;22;20019;-82
2023/06/01 11:10:46;;;;;;;9.52;3.67;;;;;;;;;;6260995;22;20033;-83
2023/06/01 11:13:14;;;;;;;10.55;4.25;;;;;;;;;;6288975;22;20350;-83
2023/06/01 11:15:40;;;;;;;9.05;4.38;;;;;;;;;;6286099;22;20019;-82
2023/06/01 11:18:25;;;;;;;10.18;4.43;;;;;;;;;;6261083;22;20007;-83
2023/06/01 11:20:53;;;;;;;10.30;5.28;;;;;;;;;;6260269;22;20011;-81
2023/06/01 11:23:20;;;;;;;13.38;5.05;;;;;;;;;;6285437;22;20047;-83
2023/06/01 11:25:47;;;;;;;11.52;4.90;;;;;;;;;;6259228;22;20094;-83
2023/06/01 11:28:13;;;;;;;7.82;4.22;;;;;;;;;;6310452;22;20018;-82
2023/06/01 11:30:39;;;;;;;9.32;4.95;;;;;;;;;;6257940;22;20037;-82
2023/06/01 11:33:06;;;;;;;13.27;4.97;;;;;;;;;;6283701;22;20015;-83
2023/06/01 11:35:32;;;;;;;13.90;5.20;;;;;;;;;;6284628;22;20026;-83
2023/06/01 11:37:59;;;;;;;11.55;4.80;;;;;;;;;;6258593;22;20129;-83
2023/06/01 11:40:25;;;;;;;10.68;5.45;;;;;;;;;;6284098;22;20011;-83
2023/06/01 11:42:51;;;;;;;12.63;5.55;;;;;;;;;;6258160;22;20022;-83
2023/06/01 11:45:18;;;;;;;10.77;5.40;;;;;;;;;;6283922;22;20018;-81
2023/06/01 11:47:45;;;;;;;9.82;4.85;;;;;;;;;;6260018;22;20007;-80
2023/06/01 11:50:31;;;;;;;7.40;4.50;;;;;;;;;;6286541;22;20011;-82
2023/06/01 11:52:58;;;;;;;12.07;4.32;;;;;;;;;;6258781;22;20312;-83
2023/06/01 11:55:24;;;;;;;7.20;4.95;;;;;;;;;;6285161;22;20042;-83
2023/06/01 11:57:50;;;;;;;7.63;3.88;;;;;;;;;;6286182;22;20040;-83
2023/06/01 12:00:16;;;;;;;7.88;3.30;;;;;;;;;;6258387;22;20437;-84
2023/06/01 12:02:42;;;;;;;9.40;3.38;;;;;;;;;;6260192;22;20096;-83
2023/06/01 12:05:09;;;;;;;9.70;3.58;;;;;;;;;;6283691;22;20030;-83
2023/06/01 12:07:47;;;;;;;11.20;3.55;;;;;;;;;;6283124;22;20011;-83
2023/06/01 12:10:15;;;;;;;8.75;3.42;;;;;;;;;;6258615;22;20353;-83
2023/06/01 12:12:43;;;;;;;8.90;3.22;;;;;;;;;;6259763;22;20030;-83
2023/06/01 12:15:09;;;;;;;8.38;3.65;;;;;;;;;;6286155;22;20195;-84
2023/06/01 12:17:52;;;;;;;12.95;5.10;;;;;;;;;;6262158;22;20007;-83
2023/06/01 12:20:28;;;;;;;11.43;4.47;;;;;;;;;;6260053;22;20008;-83
2023/06/01 12:22:55;;;;;;;10.50;4.38;;;;;;;;;;6258367;22;20526;-83
2023/06/01 12:25:22;;;;;;;13.93;5.45;;;;;;;;;;6257031;22;20007;-84
2023/06/01 12:28:04;;;;;;;11.98;4.90;;;;;;;;;;6251080;22;20098;-84
2023/06/01 12:30:30;;;;;;;10.98;4.65;;;;;;;;;;6251644;22;20022;-84
2023/06/01 12:32:57;;;;;;;12.23;4.68;;;;;;;;;;6251794;22;20030;-84
2023/06/01 12:35:23;;;;;;;12.18;4.88;;;;;;;;;;6277863;22;20449;-84
2023/06/01 12:38:10;;;;;;;15.98;4.88;;;;;;;;;;6252050;22;20296;-84
2023/06/01 12:40:38;;;;;;;9.23;5.40;;;;;;;;;;6277935;22;20065;-85
2023/06/01 12:43:05;;;;;;;11.07;5.30;;;;;;;;;;6251498;22;20015;-84
2023/06/01 12:45:40;;;;;;;12.52;6.07;;;;;;;;;;6305236;22;20011;-84
2023/06/01 12:48:07;;;;;;;12.90;5.90;;;;;;;;;;6252255;22;20023;-84
2023/06/01 12:50:33;;;;;;;8.20;5.40;;;;;;;;;;6277888;22;20255;-84
2023/06/01 12:52:59;;;;;;;9.00;4.93;;;;;;;;;;6272380;22;20024;-84
2023/06/01 12:55:25;;;;;;;9.65;5.22;;;;;;;;;;6247082;22;20079;-84
2023/06/01 12:57:55;;;;;;;9.45;5.30;;;;;;;;;;6274730;22;20026;-84
2023/06/01 13:00:21;;;;;;;10.50;5.20;;;;;;;;;;6276362;22;20022;-84
2023/06/01 13:02:49;;;;;;;9.32;4.43;;;;;;;;;;6275858;22;20047;-84
2023/06/01 13:05:18;;;;;;;10.88;4.82;;;;;;;;;;6248301;22;20022;-84
2023/06/01 13:07:45;;;;;;;12.18;5.30;;;;;;;;;;6247652;22;20016;-85
2023/06/01 13:10:12;;;;;;;10.30;5.63;;;;;;;;;;6247422;22;20015;-84
2023/06/01 13:12:40;;;;;;;11.88;4.80;;;;;;;;;;6273504;22;20019;-84
2023/06/01 13:15:06;;;;;;;12.13;4.68;;;;;;;;;;6275032;22;20037;-83
2023/06/01 13:17:32;;;;;;;10.02;3.95;;;;;;;;;;6274558;22;20106;-83
2023/06/01 13:19:58;;;;;;;16.63;6.78;;;;;;;;;;6275120;22;20342;-84
2023/06/01 13:22:25;;;;;;;12.20;6.13;;;;;;;;;;6272644;22;20572;-84
2023/06/01 13:24:51;;;;;;;13.15;5.43;;;;;;;;;;6246799;22;20011;-84
2023/06/01 13:27:17;;;;;;;13.88;6.50;;;;;;;;;;6247333;22;20011;-84
2023/06/01 13:29:43;;;;;;;12.00;6.70;;;;;;;;;;6246894;22;20047;-84
2023/06/01 13:32:09;;;;;;;12.27;6.88;;;;;;;;;;6271908;22;20023;-84
2023/06/01 13:34:35;;;;;;;17.05;10.43;;;;;;;;;;6273868;22;20331;-84
2023/06/01 13:37:02;;;;;;;13.73;8.00;;;;;;;;;;6273916;22;20080;-84
2023/06/01 13:39:28;;;;;;;14.68;7.13;;;;;;;;;;6273384;22;20535;-84
2023/06/01 13:41:54;;;;;;;17.98;8.65;;;;;;;;;;6246348;22;20034;-84
2023/06/01 13:44:20;;;;;;;12.55;7.60;;;;;;;;;;6248161;22;20018;-84
2023/06/01 13:46:46;;;;;;;14.27;8.15;;;;;;;;;;6248538;22;20023;-84
2023/06/01 13:49:12;;;;;;;24.55;9.13;;;;;;;;;;6273930;22;20411;-84
2023/06/01 13:51:38;;;;;;;17.90;10.25;;;;;;;;;;6248366;22;20039;-84
2023/06/01 13:54:05;;;;;;;14.63;7.65;;;;;;;;;;6273288;22;20090;-84
2023/06/01 13:56:31;;;;;;;13.43;7.28;;;;;;;;;;6248572;22;20022;-84
2023/06/01 13:58:57;;;;;;;14.80;6.80;;;;;;;;;;6275847;22;20023;-85
2023/06/01 14:01:23;;;;;;;15.73;5.50;;;;;;;;;;6273901;22;20011;-84
2023/06/01 14:03:50;;;;;;;17.15;5.95;;;;;;;;;;6248338;22;20019;-84
2023/06/01 14:06:16;;;;;;;13.30;4.88;;;;;;;;;;6248102;22;20008;-84
2023/06/01 14:08:42;;;;;;;10.40;4.22;;;;;;;;;;6247706;22;20015;-84
2023/06/01 14:11:08;;;;;;;14.32;5.05;;;;;;;;;;6274064;22;20111;-84
2023/06/01 14:13:34;;;;;;;12.07;4.00;;;;;;;;;;6248244;22;20190;-84
2023/06/01 14:16:00;;;;;;;11.45;4.18;;;;;;;;;;6274018;22;20085;-84
2023/06/01 14:18:26;;;;;;;11.05;3.63;;;;;;;;;;6273648;22;20039;-84
2023/06/01 14:20:52;;;;;;;10.68;4.03;;;;;;;;;;6275635;22;20007;-84
2023/06/01 14:23:18;;;;;;;13.77;4.30;;;;;;;;;;6247290;22;20387;-84
2023/06/01 14:25:45;;;;;;;13.13;4.32;;;;;;;;;;6248012;22;20090;-84